Skip Navigation LinksHome page > Weather > Current weather Skip Navigation Links

Current Weather

Chicago O'Hare Intl, Chicago

For information only: do not use for flight planning or navigation.
Latest weather
Observation time Friday, July 10, 2020 8:51 PM CDT
Local time Friday, July 10, 2020 9:11 PM CDT
Flight conditions Visual Meteorological Conditions
Winds
Wind direction West-Northwest (300°)
Wind speed 8 mph
Visibility 10 mi.
Sky condition
Ceiling unlimited
Cloud layer few clouds 5,000 ft.
Cloud layer few clouds 25,000 ft.
Temperature 80°F
Dewpoint 64°F
Altimeter 29.88 in.Hg
Derived measurements
Relative humidity 58%
Heat index 82°F
Density altitude 2344 ft.
Sea-level pressure 29.86 in.Hg
Remarks
Automated weather observing station with precipitation discriminator.
METAR KORD 110151Z 30007KT 10SM FEW050 FEW250 27/18 A2988 RMK AO2 SLP112 T02670178

Settings

Location code

InnerDrive.Weather 4.0.6770.0 Release CLR 4.0.30319.42000
Copyright ©2018 Inner Drive Technology. All rights reserved. Portions Copyright ©1986-2018 David Braverman.

Find weather

Site navigation


Skip Navigation Links

Place info

Page info

PayPal - The safer, easier way to pay online!

Return home.

Copyright ©2020 Inner Drive Technology. Purveyors of fine, hand-crafted computer software. Page printed 2020-07-11T02:11:51 UTC.